createdAt,value
2018-02-11T00:00:34.429Z,97537.13
2018-02-11T00:03:02.047Z,97532.92
2018-02-11T00:05:29.724Z,97529.11
2018-02-11T00:07:57.294Z,97529.26
2018-02-11T00:10:24.872Z,97534.60
2018-02-11T00:12:52.505Z,97551.48
2018-02-11T00:15:20.087Z,97549.38
2018-02-11T00:17:47.661Z,97553.39
2018-02-11T00:20:15.265Z,97553.87
2018-02-11T00:22:42.863Z,97560.83
2018-02-11T00:25:10.421Z,97557.96
2018-02-11T00:27:38.038Z,97554.64
2018-02-11T00:30:05.608Z,97553.38
2018-02-11T00:32:33.193Z,97556.31
2018-02-11T00:35:01.051Z,97559.06
2018-02-11T00:37:34.131Z,97553.64
2018-02-11T00:40:01.985Z,97554.63
2018-02-11T00:42:30.531Z,97557.05
2018-02-11T00:44:58.312Z,97558.49
2018-02-11T00:47:25.988Z,97557.05
2018-02-11T00:49:53.617Z,97556.05
2018-02-11T00:52:21.179Z,97553.16
2018-02-11T00:54:48.803Z,97548.55
2018-02-11T00:57:16.492Z,97543.27
2018-02-11T00:59:44.059Z,97538.11
2018-02-11T01:02:11.693Z,97529.94
2018-02-11T01:04:39.281Z,97515.74
2018-02-11T01:07:06.824Z,97519.06
2018-02-11T01:09:34.795Z,97514.48
2018-02-11T01:12:02.404Z,97513.57
2018-02-11T01:14:29.960Z,97512.58
2018-02-11T01:16:57.575Z,97511.97
2018-02-11T01:19:25.133Z,97515.33
2018-02-11T01:21:53.561Z,97507.13
2018-02-11T01:24:21.190Z,97511.48
2018-02-11T01:26:48.747Z,97503.72
2018-02-11T01:29:16.414Z,97508.88
2018-02-11T01:31:45.797Z,97502.13
2018-02-11T01:34:13.468Z,97506.89
2018-02-11T01:36:41.036Z,97504.72
2018-02-11T01:39:08.801Z,97500.72
2018-02-11T01:41:36.356Z,97493.45
2018-02-11T01:44:03.946Z,97490.03
2018-02-11T01:46:31.573Z,97487.59
2018-02-11T01:48:59.148Z,97487.35
2018-02-11T01:51:26.695Z,97485.67
2018-02-11T01:53:54.649Z,97474.91
2018-02-11T01:56:22.640Z,97477.73
2018-02-11T01:58:50.331Z,97479.07
2018-02-11T02:01:17.939Z,97470.22
2018-02-11T02:03:45.492Z,97470.98
2018-02-11T02:06:13.038Z,97476.66
2018-02-11T02:08:40.657Z,97473.42
2018-02-11T02:11:08.211Z,97476.67
2018-02-11T02:13:35.837Z,97469.57
2018-02-11T02:16:03.787Z,97467.31
2018-02-11T02:18:31.359Z,97464.98
2018-02-11T02:20:58.908Z,97458.72
2018-02-11T02:23:26.505Z,97456.63
2018-02-11T02:25:54.053Z,97455.13
2018-02-11T02:28:21.610Z,97449.69
2018-02-11T02:30:49.240Z,97454.13
2018-02-11T02:33:16.864Z,97450.53
2018-02-11T02:35:44.567Z,97447.70
2018-02-11T02:38:14.791Z,97446.72
2018-02-11T02:40:42.375Z,97448.28
2018-02-11T02:43:09.932Z,97450.53
2018-02-11T02:45:37.541Z,97450.12
2018-02-11T02:48:05.098Z,97444.47
2018-02-11T02:50:32.665Z,97451.72
2018-02-11T02:53:00.298Z,97449.20
2018-02-11T02:55:27.876Z,97452.48
2018-02-11T02:57:55.433Z,97453.28
2018-02-11T03:00:23.149Z,97451.03
2018-02-11T03:02:50.723Z,97449.53
2018-02-11T03:05:19.031Z,97461.89
2018-02-11T03:07:46.966Z,97451.55
2018-02-11T03:10:14.584Z,97446.37
2018-02-11T03:12:42.172Z,97441.11
2018-02-11T03:15:09.769Z,97443.44
2018-02-11T03:17:37.422Z,97439.01
2018-02-11T03:20:05.015Z,97451.97
2018-02-11T03:22:32.634Z,97448.88
2018-02-11T03:25:00.216Z,97453.30
2018-02-11T03:27:27.797Z,97450.79
2018-02-11T03:29:55.478Z,97453.20
2018-02-11T03:32:23.057Z,97458.53
2018-02-11T03:34:52.414Z,97446.70
2018-02-11T03:37:20.030Z,97442.70
2018-02-11T03:39:47.637Z,97456.36
2018-02-11T03:42:15.216Z,97460.70
2018-02-11T03:44:43.282Z,97461.95
2018-02-11T03:47:10.862Z,97462.87
2018-02-11T03:49:38.442Z,97466.05
2018-02-11T03:52:06.303Z,97463.45
2018-02-11T03:54:33.849Z,97463.56
2018-02-11T03:57:01.445Z,97455.22
2018-02-11T03:59:29.046Z,97456.70
2018-02-11T04:01:56.720Z,97460.22
2018-02-11T04:04:24.259Z,97464.14
2018-02-11T04:06:51.932Z,97468.57
2018-02-11T04:09:19.484Z,97465.91
2018-02-11T04:11:47.037Z,97470.82
2018-02-11T04:14:16.993Z,97475.41
2018-02-11T04:16:44.560Z,97470.48
2018-02-11T04:19:12.120Z,97475.73
2018-02-11T04:21:39.728Z,97468.14
2018-02-11T04:24:07.276Z,97469.81
2018-02-11T04:26:34.838Z,97464.05
2018-02-11T04:29:02.465Z,97467.72
2018-02-11T04:31:30.041Z,97468.13
2018-02-11T04:33:57.665Z,97465.59
2018-02-11T04:36:25.282Z,97470.70
2018-02-11T04:38:52.846Z,97473.38
2018-02-11T04:41:20.413Z,97465.94
2018-02-11T04:43:48.045Z,97467.77
2018-02-11T04:46:15.661Z,97461.70
2018-02-11T04:48:43.261Z,97463.94
2018-02-11T04:51:10.901Z,97464.43
2018-02-11T04:53:38.484Z,97466.59
2018-02-11T04:56:06.136Z,97462.40
2018-02-11T04:58:34.050Z,97467.38
2018-02-11T05:01:01.618Z,97462.58
2018-02-11T05:03:29.578Z,97466.99
2018-02-11T05:05:57.196Z,97460.39
2018-02-11T05:08:24.809Z,97458.95
2018-02-11T05:10:52.357Z,97462.94
2018-02-11T05:13:20.875Z,97458.02
2018-02-11T05:15:48.418Z,97454.31
2018-02-11T05:18:15.983Z,97458.81
2018-02-11T05:20:43.584Z,97460.67
2018-02-11T05:23:11.140Z,97466.08
2018-02-11T05:25:38.760Z,97458.80
2018-02-11T05:28:06.405Z,97463.33
2018-02-11T05:30:33.967Z,97457.40
2018-02-11T05:33:01.526Z,97457.16
2018-02-11T05:35:29.163Z,97452.50
2018-02-11T05:37:56.708Z,97454.41
2018-02-11T05:40:24.292Z,97456.93
2018-02-11T05:42:51.946Z,97457.77
2018-02-11T05:45:19.545Z,97461.92
2018-02-11T05:47:47.104Z,97462.77
2018-02-11T05:50:14.737Z,97463.18
2018-02-11T05:52:42.786Z,97466.78
2018-02-11T05:55:10.373Z,97466.12
2018-02-11T05:57:37.980Z,97456.05
2018-02-11T06:00:05.554Z,97462.86
2018-02-11T06:02:33.123Z,97461.64
2018-02-11T06:05:01.512Z,97455.89
2018-02-11T06:07:29.095Z,97460.18
2018-02-11T06:09:56.665Z,97468.44
2018-02-11T06:12:24.292Z,97458.77
2018-02-11T06:14:51.877Z,97466.52
2018-02-11T06:17:19.440Z,97461.08
2018-02-11T06:19:47.047Z,97464.29
2018-02-11T06:22:15.516Z,97456.36
2018-02-11T06:24:43.080Z,97461.01
2018-02-11T06:27:10.687Z,97469.01
2018-02-11T06:29:38.318Z,97460.18
2018-02-11T06:32:05.897Z,97462.77
2018-02-11T06:34:33.513Z,97467.47
2018-02-11T06:37:01.078Z,97456.60
2018-02-11T06:39:28.638Z,97461.22
2018-02-11T06:41:56.509Z,97460.88
2018-02-11T06:44:24.098Z,97475.79
2018-02-11T06:46:51.730Z,97471.38
2018-02-11T06:49:19.448Z,97466.90
2018-02-11T06:51:49.949Z,97473.00
2018-02-11T06:54:18.164Z,97466.41
2018-02-11T06:56:45.826Z,97467.08
2018-02-11T06:59:13.439Z,97465.13
2018-02-11T07:01:41.006Z,97460.69
2018-02-11T07:04:08.689Z,97467.07
2018-02-11T07:06:36.369Z,97467.06
2018-02-11T07:09:03.982Z,97466.81
2018-02-11T07:11:31.806Z,97466.72
2018-02-11T07:13:59.369Z,97460.88
2018-02-11T07:16:26.965Z,97460.12
2018-02-11T07:18:54.601Z,97459.06
2018-02-11T07:21:22.229Z,97471.13
2018-02-11T07:23:49.837Z,97461.33
2018-02-11T07:26:17.461Z,97463.16
2018-02-11T07:28:45.044Z,97462.47
2018-02-11T07:31:12.612Z,97469.75
2018-02-11T07:33:40.219Z,97449.83
2018-02-11T07:36:07.781Z,97462.58
2018-02-11T07:38:35.344Z,97454.48
2018-02-11T07:41:03.035Z,97457.66
2018-02-11T07:43:30.614Z,97459.50
2018-02-11T07:45:58.165Z,97467.41
2018-02-11T07:48:25.808Z,97458.89
2018-02-11T07:50:53.374Z,97466.06
2018-02-11T07:53:20.996Z,97468.07
2018-02-11T07:55:48.642Z,97469.84
2018-02-11T07:58:16.195Z,97468.25
2018-02-11T08:00:43.786Z,97459.61
2018-02-11T08:03:11.678Z,97470.44
2018-02-11T08:05:39.245Z,97462.06
2018-02-11T08:08:07.084Z,97459.09
2018-02-11T08:10:34.725Z,97458.32
2018-02-11T08:13:02.276Z,97463.33
2018-02-11T08:15:29.953Z,97458.06
2018-02-11T08:17:57.576Z,97456.86
2018-02-11T08:20:25.194Z,97466.77
2018-02-11T08:22:52.826Z,97463.26
2018-02-11T08:25:20.454Z,97465.34
2018-02-11T08:27:48.045Z,97466.27
2018-02-11T08:30:16.139Z,97474.42
2018-02-11T08:32:44.061Z,97473.84
2018-02-11T08:35:11.624Z,97476.18
2018-02-11T08:37:39.295Z,97475.55
2018-02-11T08:40:06.921Z,97475.42
2018-02-11T08:42:34.538Z,97476.19
2018-02-11T08:45:02.173Z,97478.77
2018-02-11T08:47:29.846Z,97484.77
2018-02-11T08:49:57.409Z,97486.53
2018-02-11T08:52:25.038Z,97488.91
2018-02-11T08:54:52.720Z,97483.39
2018-02-11T08:57:20.292Z,97488.23
2018-02-11T08:59:47.883Z,97492.73
2018-02-11T09:02:15.532Z,97496.25
2018-02-11T09:04:43.115Z,97496.67
2018-02-11T09:07:10.862Z,97500.02
2018-02-11T09:09:38.910Z,97505.94
2018-02-11T09:12:06.530Z,97505.17
2018-02-11T09:14:34.093Z,97501.24
2018-02-11T09:17:01.790Z,97519.08
2018-02-11T09:19:29.329Z,97523.69
2018-02-11T09:21:56.891Z,97516.70
2018-02-11T09:24:24.595Z,97512.27
2018-02-11T09:26:52.186Z,97524.30
2018-02-11T09:29:19.748Z,97523.05
2018-02-11T09:31:47.354Z,97525.63
2018-02-11T09:34:14.911Z,97518.51
2018-02-11T09:36:42.473Z,97523.35
2018-02-11T09:39:10.099Z,97531.30
2018-02-11T09:41:37.673Z,97525.67
2018-02-11T09:44:05.259Z,97526.02
2018-02-11T09:46:33.232Z,97524.41
2018-02-11T09:49:00.796Z,97522.25
2018-02-11T09:51:28.372Z,97525.09
2018-02-11T09:53:56.069Z,97525.37
2018-02-11T09:56:23.627Z,97522.01
2018-02-11T09:58:51.189Z,97525.52
2018-02-11T10:01:18.821Z,97517.09
2018-02-11T10:03:46.408Z,97527.02
2018-02-11T10:06:14.118Z,97519.62
2018-02-11T10:08:41.755Z,97524.13
2018-02-11T10:11:09.461Z,97511.62
2018-02-11T10:13:37.046Z,97522.36
2018-02-11T10:16:04.724Z,97522.78
2018-02-11T10:18:32.280Z,97518.85
2018-02-11T10:20:59.870Z,97523.09
2018-02-11T10:23:27.839Z,97518.85
2018-02-11T10:25:56.073Z,97524.26
2018-02-11T10:28:23.677Z,97522.70
2018-02-11T10:30:51.307Z,97523.25
2018-02-11T10:33:18.943Z,97523.60
2018-02-11T10:35:46.510Z,97521.73
2018-02-11T10:38:14.123Z,97521.98
2018-02-11T10:40:41.697Z,97528.97
2018-02-11T10:43:09.273Z,97521.53
2018-02-11T10:45:37.338Z,97527.92
2018-02-11T10:48:05.461Z,97535.38
2018-02-11T10:50:33.087Z,97524.56
2018-02-11T10:53:00.784Z,97527.39
2018-02-11T10:55:28.344Z,97524.17
2018-02-11T10:57:55.911Z,97524.02
2018-02-11T11:00:23.545Z,97526.84
2018-02-11T11:02:51.206Z,97523.20
2018-02-11T11:05:18.752Z,97517.36
2018-02-11T11:07:46.355Z,97521.53
2018-02-11T11:10:13.934Z,97523.79
2018-02-11T11:12:41.533Z,97520.88
2018-02-11T11:15:09.128Z,97511.06
2018-02-11T11:17:36.688Z,97514.82
2018-02-11T11:20:04.276Z,97509.32
2018-02-11T11:22:31.933Z,97506.89
2018-02-11T11:24:59.550Z,97513.00
2018-02-11T11:27:27.133Z,97518.84
2018-02-11T11:29:54.965Z,97518.51
2018-02-11T11:32:22.551Z,97513.94
2018-02-11T11:34:50.125Z,97518.71
2018-02-11T11:37:17.727Z,97525.21
2018-02-11T11:39:45.313Z,97521.39
2018-02-11T11:42:12.881Z,97522.54
2018-02-11T11:44:40.491Z,97526.30
2018-02-11T11:47:08.077Z,97525.97
2018-02-11T11:49:35.626Z,97522.19
2018-02-11T11:52:03.347Z,97525.63
2018-02-11T11:54:32.512Z,97528.80
2018-02-11T11:57:00.129Z,97525.19
2018-02-11T11:59:27.774Z,97529.63
2018-02-11T12:01:55.394Z,97528.73
2018-02-11T12:04:22.985Z,97533.39
2018-02-11T12:06:50.605Z,97532.73
2018-02-11T12:09:18.156Z,97532.80
2018-02-11T12:11:46.056Z,97538.06
2018-02-11T12:14:13.780Z,97532.88
2018-02-11T12:16:41.415Z,97544.15
2018-02-11T12:19:09.029Z,97543.75
2018-02-11T12:21:36.653Z,97539.48
2018-02-11T12:24:04.238Z,97544.22
2018-02-11T12:26:31.832Z,97556.47
2018-02-11T12:28:59.451Z,97550.47
2018-02-11T12:31:27.030Z,97545.29
2018-02-11T12:33:54.589Z,97549.40
2018-02-11T12:36:22.447Z,97550.14
2018-02-11T12:38:50.000Z,97541.47
2018-02-11T12:41:17.635Z,97545.91
2018-02-11T12:43:45.265Z,97546.08
2018-02-11T12:46:12.826Z,97546.03
2018-02-11T12:48:40.388Z,97551.55
2018-02-11T12:51:08.000Z,97546.14
2018-02-11T12:53:35.625Z,97546.74
2018-02-11T12:56:03.181Z,97541.27
2018-02-11T12:58:30.822Z,97552.21
2018-02-11T13:00:58.741Z,97550.29
2018-02-11T13:03:26.338Z,97540.92
2018-02-11T13:05:53.952Z,97543.41
2018-02-11T13:08:21.515Z,97544.23
2018-02-11T13:10:49.109Z,97555.47
2018-02-11T13:13:16.830Z,97555.26
2018-02-11T13:15:44.559Z,97553.47
2018-02-11T13:18:12.120Z,97559.56
2018-02-11T13:20:39.819Z,97557.67
2018-02-11T13:23:07.432Z,97555.92
2018-02-11T13:25:34.992Z,97544.68
2018-02-11T13:28:02.649Z,97543.94
2018-02-11T13:30:30.237Z,97537.95
2018-02-11T13:32:57.849Z,97543.94
2018-02-11T13:35:25.485Z,97538.86
2018-02-11T13:37:53.100Z,97555.80
2018-02-11T13:40:20.687Z,97562.03
2018-02-11T13:42:48.423Z,97552.28
2018-02-11T13:45:15.992Z,97560.02
2018-02-11T13:47:43.540Z,97549.76
2018-02-11T13:50:11.195Z,97551.45
2018-02-11T13:52:38.810Z,97547.59
2018-02-11T13:55:06.376Z,97554.44
2018-02-11T13:57:34.037Z,97558.64
2018-02-11T14:00:02.494Z,97555.45
2018-02-11T14:02:30.053Z,97565.80
2018-02-11T14:04:57.679Z,97579.80
2018-02-11T14:07:25.237Z,97588.65
2018-02-11T14:09:52.801Z,97584.80
2018-02-11T14:12:20.440Z,97597.50
2018-02-11T14:14:47.999Z,97595.41
2018-02-11T14:17:15.675Z,97595.42
2018-02-11T14:19:43.311Z,97600.13
2018-02-11T14:22:10.906Z,97606.49
2018-02-11T14:24:38.496Z,97610.17
2018-02-11T14:27:06.135Z,97612.09
2018-02-11T14:29:33.723Z,97617.30
2018-02-11T14:32:01.306Z,97606.05
2018-02-11T14:34:28.951Z,97611.14
2018-02-11T14:36:56.581Z,97616.77
2018-02-11T14:39:24.387Z,97615.44
2018-02-11T14:41:52.245Z,97616.26
2018-02-11T14:44:19.813Z,97617.45
2018-02-11T14:46:47.393Z,97619.86
2018-02-11T14:49:15.004Z,97619.21
2018-02-11T14:51:42.581Z,97627.80
2018-02-11T14:54:10.154Z,97620.97
2018-02-11T14:56:37.829Z,97626.55
2018-02-11T14:59:06.234Z,97622.37
2018-02-11T15:01:33.815Z,97630.32
2018-02-11T15:04:01.706Z,97624.28
2018-02-11T15:06:29.289Z,97628.81
2018-02-11T15:08:56.844Z,97634.54
2018-02-11T15:11:24.533Z,97636.47
2018-02-11T15:13:52.118Z,97641.23
2018-02-11T15:16:19.701Z,97641.39
2018-02-11T15:18:47.416Z,97642.16
2018-02-11T15:21:14.984Z,97646.58
2018-02-11T15:23:42.626Z,97649.33
2018-02-11T15:26:10.243Z,97655.80
2018-02-11T15:28:37.840Z,97658.89
2018-02-11T15:31:06.080Z,97661.25
2018-02-11T15:33:34.252Z,97665.23
2018-02-11T15:36:01.841Z,97664.11
2018-02-11T15:38:29.408Z,97670.77
2018-02-11T15:40:57.008Z,97677.77
2018-02-11T15:43:24.585Z,97673.00
2018-02-11T15:45:52.156Z,97670.17
2018-02-11T15:48:20.042Z,97668.89
2018-02-11T15:50:47.626Z,97676.30
2018-02-11T15:53:15.195Z,97686.70
2018-02-11T15:55:42.914Z,97689.72
2018-02-11T15:58:10.481Z,97689.22
2018-02-11T16:00:38.068Z,97691.97
2018-02-11T16:03:05.823Z,97688.12
2018-02-11T16:05:33.504Z,97699.65
2018-02-11T16:08:01.066Z,97703.83
2018-02-11T16:10:28.707Z,97708.97
2018-02-11T16:12:56.264Z,97706.30
2018-02-11T16:15:23.849Z,97713.98
2018-02-11T16:17:51.515Z,97717.75
2018-02-11T16:20:19.186Z,97722.44
2018-02-11T16:22:46.770Z,97726.14
2018-02-11T16:25:14.659Z,97726.05
2018-02-11T16:27:42.230Z,97733.66
2018-02-11T16:30:09.893Z,97735.27
2018-02-11T16:32:42.222Z,97746.64
2018-02-11T16:35:05.139Z,97750.31
2018-02-11T16:37:32.774Z,97754.69
2018-02-11T16:40:00.991Z,97760.42
2018-02-11T16:42:28.568Z,97761.59
2018-02-11T16:44:56.156Z,97767.77
2018-02-11T16:47:23.826Z,97774.17
2018-02-11T16:49:51.432Z,97777.69
2018-02-11T16:52:19.018Z,97775.29
2018-02-11T16:54:46.669Z,97779.86
2018-02-11T16:57:14.249Z,97789.63
2018-02-11T16:59:41.827Z,97792.89
2018-02-11T17:02:09.789Z,97795.69
2018-02-11T17:04:38.110Z,97796.92
2018-02-11T17:07:05.690Z,97796.77
2018-02-11T17:09:33.300Z,97801.30
2018-02-11T17:12:01.042Z,97804.73
2018-02-11T17:14:28.619Z,97808.32
2018-02-11T17:16:56.234Z,97808.72
2018-02-11T17:19:23.816Z,97813.37
2018-02-11T17:21:51.459Z,97814.03
2018-02-11T17:24:19.147Z,97811.37
2018-02-11T17:26:46.839Z,97822.22
2018-02-11T17:29:14.404Z,97822.05
2018-02-11T17:31:42.044Z,97825.98
2018-02-11T17:34:09.646Z,97831.55
2018-02-11T17:36:37.293Z,97831.82
2018-02-11T17:39:05.003Z,97834.31
2018-02-11T17:41:32.585Z,97839.58
2018-02-11T17:44:00.196Z,97842.90
2018-02-11T17:46:27.889Z,97853.30
2018-02-11T17:48:55.530Z,97843.81
2018-02-11T17:51:23.116Z,97846.91
2018-02-11T17:53:50.773Z,97848.06
2018-02-11T17:56:18.585Z,97851.02
2018-02-11T17:58:46.166Z,97855.69
2018-02-11T18:01:13.808Z,97864.25
2018-02-11T18:03:41.478Z,97856.89
2018-02-11T18:06:09.827Z,97862.76
2018-02-11T18:08:37.483Z,97866.50
2018-02-11T18:11:05.051Z,97868.64
2018-02-11T18:13:32.626Z,97873.05
2018-02-11T18:16:00.492Z,97876.45
2018-02-11T18:18:28.093Z,97878.22
2018-02-11T18:20:55.677Z,97889.95
2018-02-11T18:23:24.249Z,97883.59
2018-02-11T18:25:51.835Z,97886.91
2018-02-11T18:28:19.462Z,97884.14
2018-02-11T18:30:47.127Z,97889.84
2018-02-11T18:33:14.681Z,97894.44
2018-02-11T18:35:42.272Z,97894.44
2018-02-11T18:38:09.946Z,97890.97
2018-02-11T18:40:37.503Z,97894.05
2018-02-11T18:43:05.066Z,97896.80
2018-02-11T18:45:32.703Z,97894.09
2018-02-11T18:48:00.255Z,97900.03
2018-02-11T18:50:27.823Z,97903.26
2018-02-11T18:52:55.445Z,97915.23
2018-02-11T18:55:23.017Z,97916.92
2018-02-11T18:57:50.625Z,97912.25
2018-02-11T19:00:18.250Z,97907.76
2018-02-11T19:02:45.881Z,97913.66
2018-02-11T19:05:13.565Z,97917.41
2018-02-11T19:07:41.875Z,97924.76
2018-02-11T19:10:09.524Z,97924.05
2018-02-11T19:12:37.088Z,97924.97
2018-02-11T19:15:04.741Z,97921.63
2018-02-11T19:17:33.126Z,97930.66
2018-02-11T19:20:00.819Z,97928.41
2018-02-11T19:22:28.501Z,97937.97
2018-02-11T19:24:57.190Z,97935.44
2018-02-11T19:27:24.838Z,97935.58
2018-02-11T19:29:52.518Z,97937.69
2018-02-11T19:32:20.954Z,97943.69
2018-02-11T19:34:48.535Z,97942.95
2018-02-11T19:37:16.152Z,97945.17
2018-02-11T19:39:43.733Z,97947.70
2018-02-11T19:42:11.415Z,97948.89
2018-02-11T19:44:39.063Z,97951.04
2018-02-11T19:47:06.644Z,97949.95
2018-02-11T19:49:34.227Z,97950.94
2018-02-11T19:52:01.842Z,97960.91
2018-02-11T19:54:29.487Z,97957.99
2018-02-11T19:56:57.057Z,97961.92
2018-02-11T19:59:24.710Z,97964.70
2018-02-11T20:01:52.292Z,97968.09
2018-02-11T20:04:19.931Z,97968.41
2018-02-11T20:06:47.551Z,97973.22
2018-02-11T20:09:15.194Z,97976.56
2018-02-11T20:11:43.196Z,97980.23
2018-02-11T20:14:10.901Z,97982.55
2018-02-11T20:16:38.538Z,97982.34
2018-02-11T20:19:06.205Z,97976.48
2018-02-11T20:21:33.855Z,97987.76
2018-02-11T20:24:01.420Z,97988.11
2018-02-11T20:26:29.476Z,97993.70
2018-02-11T20:28:57.118Z,97996.23
2018-02-11T20:31:24.775Z,97993.62
2018-02-11T20:33:52.384Z,97996.50
2018-02-11T20:36:20.012Z,97994.98
2018-02-11T20:38:47.575Z,97993.65
2018-02-11T20:41:15.149Z,98002.11
2018-02-11T20:43:42.793Z,98005.20
2018-02-11T20:46:10.371Z,98010.56
2018-02-11T20:48:37.973Z,98012.88
2018-02-11T20:51:05.886Z,98014.43
2018-02-11T20:53:33.481Z,98008.39
2018-02-11T20:56:01.138Z,98012.21
2018-02-11T20:58:28.871Z,98009.12
2018-02-11T21:00:57.053Z,98005.84
2018-02-11T21:03:26.681Z,98012.09
2018-02-11T21:05:54.477Z,98015.68
2018-02-11T21:08:22.109Z,98016.70
2018-02-11T21:10:49.725Z,98020.82
2018-02-11T21:13:18.176Z,98019.84
2018-02-11T21:15:45.830Z,98019.70
2018-02-11T21:18:13.406Z,98021.08
2018-02-11T21:20:41.365Z,98027.80
2018-02-11T21:23:08.927Z,98023.48
2018-02-11T21:25:36.518Z,98017.05
2018-02-11T21:28:04.337Z,98028.93
2018-02-11T21:30:31.911Z,98029.84
2018-02-11T21:32:59.488Z,98028.30
2018-02-11T21:35:27.100Z,98031.15
2018-02-11T21:37:54.791Z,98033.29
2018-02-11T21:40:22.460Z,98036.27
2018-02-11T21:42:50.106Z,98039.14
2018-02-11T21:45:17.693Z,98038.05
2018-02-11T21:47:45.277Z,98039.23
2018-02-11T21:50:12.943Z,98042.34
2018-02-11T21:52:40.536Z,98047.29
2018-02-11T21:55:08.124Z,98047.17
2018-02-11T21:57:35.977Z,98049.84
2018-02-11T22:00:03.547Z,98045.91
2018-02-11T22:02:31.139Z,98043.10
2018-02-11T22:04:58.837Z,98046.80
2018-02-11T22:07:26.428Z,98048.44
2018-02-11T22:09:54.045Z,98047.75
2018-02-11T22:12:21.673Z,98051.76
2018-02-11T22:14:49.248Z,98052.18
2018-02-11T22:17:16.870Z,98050.49
2018-02-11T22:19:44.524Z,98052.89
2018-02-11T22:22:12.096Z,98056.34
2018-02-11T22:24:39.680Z,98058.27
2018-02-11T22:27:07.296Z,98052.83
2018-02-11T22:29:34.990Z,98055.90
2018-02-11T22:32:02.572Z,98050.95
2018-02-11T22:34:30.446Z,98049.56
2018-02-11T22:36:58.388Z,98054.03
2018-02-11T22:39:26.611Z,98049.46
2018-02-11T22:41:54.217Z,98056.06
2018-02-11T22:44:21.789Z,98047.98
2018-02-11T22:46:49.379Z,98050.91
2018-02-11T22:49:17.054Z,98046.41
2018-02-11T22:51:44.640Z,98043.45
2018-02-11T22:54:12.287Z,98044.30
2018-02-11T22:56:39.924Z,98044.41
2018-02-11T22:59:07.502Z,98046.19
2018-02-11T23:01:35.060Z,98047.48
2018-02-11T23:04:02.763Z,98044.17
2018-02-11T23:06:30.343Z,98049.85
2018-02-11T23:08:58.291Z,98050.30
2018-02-11T23:11:26.168Z,98050.82
2018-02-11T23:13:53.751Z,98051.80
2018-02-11T23:16:21.377Z,98051.64
2018-02-11T23:18:49.078Z,98051.78
2018-02-11T23:21:16.906Z,98056.45
2018-02-11T23:23:44.471Z,98056.25
2018-02-11T23:26:12.092Z,98051.66
2018-02-11T23:28:39.679Z,98061.70
2018-02-11T23:31:07.349Z,98063.95
2018-02-11T23:33:35.029Z,98066.88
2018-02-11T23:36:02.662Z,98066.31
2018-02-11T23:38:30.715Z,98066.17
2018-02-11T23:40:58.360Z,98072.50
2018-02-11T23:43:25.928Z,98075.73
2018-02-11T23:45:53.584Z,98072.56
2018-02-11T23:48:21.283Z,98076.45
2018-02-11T23:50:48.873Z,98082.80
2018-02-11T23:53:16.471Z,98078.33
2018-02-11T23:55:44.100Z,98081.43
2018-02-11T23:58:11.700Z,98091.40
